sensor_id;sensor_type;location;lat;lon;timestamp;pressure;altitude;pressure_sealevel;temperature;humidity
71974;BME280;59840;52.122;5.404;2023-04-24T00:00:54;99947.03;;;9.14;100.00
71974;BME280;59840;52.122;5.404;2023-04-24T00:03:59;99952.28;;;9.14;100.00
71974;BME280;59840;52.122;5.404;2023-04-24T00:06:48;99952.78;;;9.11;100.00
71974;BME280;59840;52.122;5.404;2023-04-24T00:09:43;99956.19;;;9.06;100.00
71974;BME280;59840;52.122;5.404;2023-04-24T00:13:20;99953.28;;;9.03;100.00
71974;BME280;59840;52.122;5.404;2023-04-24T00:16:21;99971.19;;;9.06;100.00
71974;BME280;59840;52.122;5.404;2023-04-24T00:19:44;99971.94;;;9.01;100.00
71974;BME280;59840;52.122;5.404;2023-04-24T00:23:28;99969.31;;;9.01;100.00
71974;BME280;59840;52.122;5.404;2023-04-24T00:26:27;99972.75;;;9.02;100.00
71974;BME280;59840;52.122;5.404;2023-04-24T00:29:39;99981.44;;;9.02;100.00
71974;BME280;59840;52.122;5.404;2023-04-24T00:39:51;99979.50;;;8.88;100.00
71974;BME280;59840;52.122;5.404;2023-04-24T00:42:49;99978.72;;;8.87;100.00
71974;BME280;59840;52.122;5.404;2023-04-24T00:49:04;99987.16;;;8.89;100.00
71974;BME280;59840;52.122;5.404;2023-04-24T00:52:02;99978.47;;;8.89;100.00
71974;BME280;59840;52.122;5.404;2023-04-24T01:02:23;99992.91;;;8.86;100.00
71974;BME280;59840;52.122;5.404;2023-04-24T01:05:27;99994.50;;;8.87;100.00
71974;BME280;59840;52.122;5.404;2023-04-24T01:08:26;99993.47;;;8.88;100.00
71974;BME280;59840;52.122;5.404;2023-04-24T01:15:24;100006.88;;;8.87;100.00
71974;BME280;59840;52.122;5.404;2023-04-24T01:24:40;100009.78;;;8.90;100.00
71974;BME280;59840;52.122;5.404;2023-04-24T01:31:22;100020.59;;;8.94;100.00
71974;BME280;59840;52.122;5.404;2023-04-24T01:34:13;100015.63;;;8.97;100.00
71974;BME280;59840;52.122;5.404;2023-04-24T01:37:20;100015.63;;;8.97;100.00
71974;BME280;59840;52.122;5.404;2023-04-24T01:40:43;100013.78;;;8.98;100.00
71974;BME280;59840;52.122;5.404;2023-04-24T01:43:54;100014.34;;;9.00;100.00
71974;BME280;59840;52.122;5.404;2023-04-24T01:50:35;100021.69;;;8.98;100.00
71974;BME280;59840;52.122;5.404;2023-04-24T01:54:00;100015.63;;;8.97;100.00
71974;BME280;59840;52.122;5.404;2023-04-24T01:56:48;100022.22;;;9.00;100.00
71974;BME280;59840;52.122;5.404;2023-04-24T01:59:25;100025.38;;;9.02;100.00
71974;BME280;59840;52.122;5.404;2023-04-24T02:05:32;100025.91;;;9.04;100.00
71974;BME280;59840;52.122;5.404;2023-04-24T02:15:21;100019.06;;;9.03;100.00
71974;BME280;59840;52.122;5.404;2023-04-24T02:18:28;100028.03;;;9.07;100.00
71974;BME280;59840;52.122;5.404;2023-04-24T02:21:43;100028.03;;;9.07;100.00
71974;BME280;59840;52.122;5.404;2023-04-24T02:24:32;100024.06;;;9.04;100.00
71974;BME280;59840;52.122;5.404;2023-04-24T02:31:04;100016.16;;;8.99;100.00
71974;BME280;59840;52.122;5.404;2023-04-24T02:34:16;100020.63;;;8.99;100.00
71974;BME280;59840;52.122;5.404;2023-04-24T02:37:19;100020.88;;;8.97;100.00
71974;BME280;59840;52.122;5.404;2023-04-24T02:43:56;100032.97;;;8.93;100.00
71974;BME280;59840;52.122;5.404;2023-04-24T02:47:02;100022.19;;;8.95;100.00
71974;BME280;59840;52.122;5.404;2023-04-24T02:50:05;100023.03;;;9.00;100.00
71974;BME280;59840;52.122;5.404;2023-04-24T02:53:26;100023.28;;;8.99;100.00
71974;BME280;59840;52.122;5.404;2023-04-24T03:00:06;100032.75;;;9.00;100.00
71974;BME280;59840;52.122;5.404;2023-04-24T03:03:06;100014.84;;;8.97;100.00
71974;BME280;59840;52.122;5.404;2023-04-24T03:06:23;100017.75;;;9.00;100.00
71974;BME280;59840;52.122;5.404;2023-04-24T03:09:48;100018.00;;;8.99;100.00
71974;BME280;59840;52.122;5.404;2023-04-24T03:12:50;100021.16;;;8.96;100.00
71974;BME280;59840;52.122;5.404;2023-04-24T03:25:23;100021.94;;;8.96;100.00
71974;BME280;59840;52.122;5.404;2023-04-24T03:28:16;100015.88;;;8.96;100.00
71974;BME280;59840;52.122;5.404;2023-04-24T03:31:16;100027.44;;;8.95;100.00
71974;BME280;59840;52.122;5.404;2023-04-24T03:34:42;100023.75;;;8.91;100.00
71974;BME280;59840;52.122;5.404;2023-04-24T03:41:24;100025.06;;;8.93;100.00
71974;BME280;59840;52.122;5.404;2023-04-24T03:44:20;100032.72;;;8.95;100.00
71974;BME280;59840;52.122;5.404;2023-04-24T03:46:52;100022.19;;;8.95;100.00
71974;BME280;59840;52.122;5.404;2023-04-24T03:49:25;100018.22;;;8.92;100.00
71974;BME280;59840;52.122;5.404;2023-04-24T03:51:58;100020.84;;;8.92;100.00
71974;BME280;59840;52.122;5.404;2023-04-24T03:54:46;100030.63;;;8.97;100.00
71974;BME280;59840;52.122;5.404;2023-04-24T03:57:45;100025.88;;;8.94;100.00
71974;BME280;59840;52.122;5.404;2023-04-24T04:00:17;100025.06;;;8.93;100.00
71974;BME280;59840;52.122;5.404;2023-04-24T04:03:10;100031.13;;;8.94;100.00
71974;BME280;59840;52.122;5.404;2023-04-24T04:05:47;100033.47;;;8.90;100.00
71974;BME280;59840;52.122;5.404;2023-04-24T04:08:30;100037.88;;;8.85;100.00
71974;BME280;59840;52.122;5.404;2023-04-24T04:11:19;100039.22;;;8.87;100.00
71974;BME280;59840;52.122;5.404;2023-04-24T04:13:51;100042.66;;;8.88;100.00
71974;BME280;59840;52.122;5.404;2023-04-24T04:16:29;100045.81;;;8.90;100.00
71974;BME280;59840;52.122;5.404;2023-04-24T04:18:58;100048.72;;;8.88;100.00
71974;BME280;59840;52.122;5.404;2023-04-24T04:21:32;100046.88;;;8.89;100.00
71974;BME280;59840;52.122;5.404;2023-04-24T04:24:07;100043.69;;;8.87;100.00
71974;BME280;59840;52.122;5.404;2023-04-24T04:26:38;100044.50;;;8.87;100.00
71974;BME280;59840;52.122;5.404;2023-04-24T04:29:21;100060.03;;;8.89;100.00
71974;BME280;59840;52.122;5.404;2023-04-24T04:31:54;100053.72;;;8.90;100.00
71974;BME280;59840;52.122;5.404;2023-04-24T04:34:38;100051.28;;;8.83;100.00
71974;BME280;59840;52.122;5.404;2023-04-24T04:37:09;100051.59;;;8.87;100.00
71974;BME280;59840;52.122;5.404;2023-04-24T04:40:00;100060.53;;;8.86;100.00
71974;BME280;59840;52.122;5.404;2023-04-24T04:42:47;100067.38;;;8.87;100.00
71974;BME280;59840;52.122;5.404;2023-04-24T04:45:26;100065.53;;;8.87;100.00
71974;BME280;59840;52.122;5.404;2023-04-24T04:48:11;100077.41;;;8.90;100.00
71974;BME280;59840;52.122;5.404;2023-04-24T04:50:56;100078.69;;;8.87;100.00
71974;BME280;59840;52.122;5.404;2023-04-24T04:53:34;100078.94;;;8.86;100.00
71974;BME280;59840;52.122;5.404;2023-04-24T04:56:07;100085.78;;;8.87;100.00
71974;BME280;59840;52.122;5.404;2023-04-24T04:58:38;100085.53;;;8.88;100.00
71974;BME280;59840;52.122;5.404;2023-04-24T05:01:09;100085.53;;;8.88;100.00
71974;BME280;59840;52.122;5.404;2023-04-24T05:03:40;100091.59;;;8.89;100.00
71974;BME280;59840;52.122;5.404;2023-04-24T05:06:15;100093.72;;;8.92;100.00
71974;BME280;59840;52.122;5.404;2023-04-24T05:08:46;100099.00;;;8.92;100.00
71974;BME280;59840;52.122;5.404;2023-04-24T05:11:13;100108.91;;;8.85;100.00
71974;BME280;59840;52.122;5.404;2023-04-24T05:14:13;100112.00;;;8.77;100.00
71974;BME280;59840;52.122;5.404;2023-04-24T05:16:47;100111.50;;;8.80;100.00
71974;BME280;59840;52.122;5.404;2023-04-24T05:19:28;100115.78;;;8.86;100.00
71974;BME280;59840;52.122;5.404;2023-04-24T05:22:21;100120.78;;;8.87;100.00
71974;BME280;59840;52.122;5.404;2023-04-24T05:24:51;100129.47;;;8.88;100.00
71974;BME280;59840;52.122;5.404;2023-04-24T05:27:22;100127.44;;;8.95;100.00
71974;BME280;59840;52.122;5.404;2023-04-24T05:29:54;100133.72;;;8.94;100.00
71974;BME280;59840;52.122;5.404;2023-04-24T05:32:39;100132.94;;;8.93;100.00
71974;BME280;59840;52.122;5.404;2023-04-24T05:35:32;100138.50;;;8.97;100.00
71974;BME280;59840;52.122;5.404;2023-04-24T05:38:27;100136.13;;;8.95;100.00
71974;BME280;59840;52.122;5.404;2023-04-24T05:41:05;100144.00;;;8.95;100.00
71974;BME280;59840;52.122;5.404;2023-04-24T05:43:34;100158.16;;;8.89;100.00
71974;BME280;59840;52.122;5.404;2023-04-24T05:46:19;100176.88;;;8.93;100.00
71974;BME280;59840;52.122;5.404;2023-04-24T05:48:57;100174.97;;;8.88;100.00
71974;BME280;59840;52.122;5.404;2023-04-24T05:51:29;100164.97;;;8.85;100.00
71974;BME280;59840;52.122;5.404;2023-04-24T05:53:57;100175.97;;;8.82;100.00
71974;BME280;59840;52.122;5.404;2023-04-24T05:56:28;100173.59;;;8.81;100.00
71974;BME280;59840;52.122;5.404;2023-04-24T05:59:09;100185.66;;;8.77;100.00
71974;BME280;59840;52.122;5.404;2023-04-24T06:01:40;100187.47;;;8.76;100.00
71974;BME280;59840;52.122;5.404;2023-04-24T06:04:07;100185.09;;;8.74;100.00
71974;BME280;59840;52.122;5.404;2023-04-24T06:06:35;100196.59;;;8.68;100.00
71974;BME280;59840;52.122;5.404;2023-04-24T06:09:01;100202.91;;;8.67;100.00
71974;BME280;59840;52.122;5.404;2023-04-24T06:11:29;100217.84;;;8.62;100.00
71974;BME280;59840;52.122;5.404;2023-04-24T06:13:55;100213.88;;;8.59;100.00
71974;BME280;59840;52.122;5.404;2023-04-24T06:16:22;100212.53;;;8.57;100.00
71974;BME280;59840;52.122;5.404;2023-04-24T06:18:48;100225.31;;;8.48;100.00
71974;BME280;59840;52.122;5.404;2023-04-24T06:21:16;100221.59;;;8.44;100.00
71974;BME280;59840;52.122;5.404;2023-04-24T06:23:43;100233.69;;;8.45;100.00
71974;BME280;59840;52.122;5.404;2023-04-24T06:26:10;100231.63;;;8.47;100.00
71974;BME280;59840;52.122;5.404;2023-04-24T06:28:36;100238.94;;;8.45;100.00
71974;BME280;59840;52.122;5.404;2023-04-24T06:31:03;100254.41;;;8.42;100.00
71974;BME280;59840;52.122;5.404;2023-04-24T06:33:30;100258.88;;;8.41;100.00
71974;BME280;59840;52.122;5.404;2023-04-24T06:35:56;100268.19;;;8.32;100.00
71974;BME280;59840;52.122;5.404;2023-04-24T06:38:23;100262.88;;;8.27;100.00
71974;BME280;59840;52.122;5.404;2023-04-24T06:40:50;100275.22;;;8.26;100.00
71974;BME280;59840;52.122;5.404;2023-04-24T06:43:26;100282.78;;;8.23;100.00
71974;BME280;59840;52.122;5.404;2023-04-24T06:45:54;100284.38;;;8.24;100.00
71974;BME280;59840;52.122;5.404;2023-04-24T06:48:21;100294.03;;;8.18;100.00
71974;BME280;59840;52.122;5.404;2023-04-24T06:50:57;100300.88;;;8.19;100.00
71974;BME280;59840;52.122;5.404;2023-04-24T06:53:24;100306.84;;;8.15;100.00
71974;BME280;59840;52.122;5.404;2023-04-24T06:55:51;100314.41;;;8.11;100.00
71974;BME280;59840;52.122;5.404;2023-04-24T06:58:18;100322.78;;;8.08;100.00
71974;BME280;59840;52.122;5.404;2023-04-24T07:00:44;100331.38;;;8.03;100.00
71974;BME280;59840;52.122;5.404;2023-04-24T07:03:11;100328.44;;;8.00;100.00
71974;BME280;59840;52.122;5.404;2023-04-24T07:05:38;100334.44;;;7.95;100.00
71974;BME280;59840;52.122;5.404;2023-04-24T07:08:05;100340.94;;;7.93;100.00
71974;BME280;59840;52.122;5.404;2023-04-24T07:10:33;100339.44;;;7.97;100.00
71974;BME280;59840;52.122;5.404;2023-04-24T07:13:01;100353.75;;;7.89;100.00
71974;BME280;59840;52.122;5.404;2023-04-24T07:15:28;100361.31;;;7.86;100.00
71974;BME280;59840;52.122;5.404;2023-04-24T07:17:55;100372.28;;;7.83;100.00
71974;BME280;59840;52.122;5.404;2023-04-24T07:20:23;100378.25;;;7.78;100.00
71974;BME280;59840;52.122;5.404;2023-04-24T07:22:49;100378.50;;;7.77;100.00
71974;BME280;59840;52.122;5.404;2023-04-24T07:25:18;100392.31;;;7.72;100.00
71974;BME280;59840;52.122;5.404;2023-04-24T07:27:44;100392.78;;;7.69;100.00
71974;BME280;59840;52.122;5.404;2023-04-24T07:30:11;100393.81;;;7.68;100.00
71974;BME280;59840;52.122;5.404;2023-04-24T07:32:45;100407.41;;;7.65;100.00
71974;BME280;59840;52.122;5.404;2023-04-24T07:35:18;100415.88;;;7.67;100.00
71974;BME280;59840;52.122;5.404;2023-04-24T07:37:48;100419.53;;;7.66;100.00
71974;BME280;59840;52.122;5.404;2023-04-24T07:40:24;100413.47;;;7.65;100.00
71974;BME280;59840;52.122;5.404;2023-04-24T07:42:50;100429.78;;;7.67;100.00
71974;BME280;59840;52.122;5.404;2023-04-24T07:45:19;100443.25;;;7.71;100.00
71974;BME280;59840;52.122;5.404;2023-04-24T07:47:50;100435.59;;;7.69;100.00
71974;BME280;59840;52.122;5.404;2023-04-24T07:50:21;100444.84;;;7.72;100.00
71974;BME280;59840;52.122;5.404;2023-04-24T07:52:50;100454.09;;;7.74;100.00
71974;BME280;59840;52.122;5.404;2023-04-24T07:55:19;100453.28;;;7.74;100.00
71974;BME280;59840;52.122;5.404;2023-04-24T07:57:50;100453.75;;;7.71;100.00
71974;BME280;59840;52.122;5.404;2023-04-24T08:00:18;100461.75;;;7.76;100.00
71974;BME280;59840;52.122;5.404;2023-04-24T08:02:46;100463.09;;;7.79;100.00
71974;BME280;59840;52.122;5.404;2023-04-24T08:05:16;100473.38;;;7.80;100.00
71974;BME280;59840;52.122;5.404;2023-04-24T08:07:47;100473.38;;;7.80;100.00
71974;BME280;59840;52.122;5.404;2023-04-24T08:10:16;100482.84;;;7.81;100.00
71974;BME280;59840;52.122;5.404;2023-04-24T08:12:43;100482.28;;;7.79;100.00
71974;BME280;59840;52.122;5.404;2023-04-24T08:15:10;100495.97;;;7.81;100.00
71974;BME280;59840;52.122;5.404;2023-04-24T08:17:39;100504.78;;;7.75;100.00
71974;BME280;59840;52.122;5.404;2023-04-24T08:20:10;100504.13;;;7.68;100.00
71974;BME280;59840;52.122;5.404;2023-04-24T08:22:47;100514.06;;;7.66;100.00
71974;BME280;59840;52.122;5.404;2023-04-24T08:25:15;100522.97;;;7.65;100.00
71974;BME280;59840;52.122;5.404;2023-04-24T08:27:44;100519.34;;;7.54;100.00
71974;BME280;59840;52.122;5.404;2023-04-24T08:30:12;100535.91;;;7.43;100.00
71974;BME280;59840;52.122;5.404;2023-04-24T08:32:39;100543.00;;;7.43;100.00
71974;BME280;59840;52.122;5.404;2023-04-24T08:35:06;100550.63;;;7.44;100.00
71974;BME280;59840;52.122;5.404;2023-04-24T08:37:35;100553.94;;;7.51;100.00
71974;BME280;59840;52.122;5.404;2023-04-24T08:40:12;100565.13;;;7.58;100.00
71974;BME280;59840;52.122;5.404;2023-04-24T08:42:45;100568.41;;;7.65;100.00
71974;BME280;59840;52.122;5.404;2023-04-24T08:45:17;100569.66;;;7.74;100.00
71974;BME280;59840;52.122;5.404;2023-04-24T08:47:45;100562.44;;;7.82;100.00
71974;BME280;59840;52.122;5.404;2023-04-24T08:50:13;100575.09;;;7.85;100.00
71974;BME280;59840;52.122;5.404;2023-04-24T08:52:41;100567.00;;;7.86;100.00
71974;BME280;59840;52.122;5.404;2023-04-24T08:55:12;100592.69;;;7.84;100.00
71974;BME280;59840;52.122;5.404;2023-04-24T08:57:45;100595.31;;;7.84;100.00
71974;BME280;59840;52.122;5.404;2023-04-24T09:00:25;100599.09;;;7.88;100.00
71974;BME280;59840;52.122;5.404;2023-04-24T09:03:04;100595.44;;;7.89;100.00
71974;BME280;59840;52.122;5.404;2023-04-24T09:05:43;100603.31;;;7.89;100.00
71974;BME280;59840;52.122;5.404;2023-04-24T09:08:19;100607.09;;;7.82;100.00
71974;BME280;59840;52.122;5.404;2023-04-24T09:10:46;100615.66;;;7.77;100.00
71974;BME280;59840;52.122;5.404;2023-04-24T09:13:20;100615.31;;;7.73;100.00
71974;BME280;59840;52.122;5.404;2023-04-24T09:15:50;100620.44;;;7.80;100.00
71974;BME280;59840;52.122;5.404;2023-04-24T09:18:24;100620.91;;;7.89;100.00
71974;BME280;59840;52.122;5.404;2023-04-24T09:21:03;100617.06;;;8.08;100.00
71974;BME280;59840;52.122;5.404;2023-04-24T09:23:33;100630.44;;;8.18;100.00
71974;BME280;59840;52.122;5.404;2023-04-24T09:26:06;100628.09;;;8.33;100.00
71974;BME280;59840;52.122;5.404;2023-04-24T09:28:43;100638.91;;;8.49;100.00
71974;BME280;59840;52.122;5.404;2023-04-24T09:31:19;100637.19;;;8.54;100.00
71974;BME280;59840;52.122;5.404;2023-04-24T09:33:56;100640.53;;;8.66;100.00
71974;BME280;59840;52.122;5.404;2023-04-24T09:39:07;100647.75;;;8.88;100.00
71974;BME280;59840;52.122;5.404;2023-04-24T09:41:54;100650.50;;;8.93;100.00
71974;BME280;59840;52.122;5.404;2023-04-24T09:44:26;100655.28;;;9.13;100.00
71974;BME280;59840;52.122;5.404;2023-04-24T09:46:58;100654.97;;;9.26;99.65
71974;BME280;59840;52.122;5.404;2023-04-24T09:49:28;100670.59;;;8.99;97.44
71974;BME280;59840;52.122;5.404;2023-04-24T09:52:10;100670.88;;;8.86;99.71
71974;BME280;59840;52.122;5.404;2023-04-24T09:54:39;100681.19;;;8.59;95.58
71974;BME280;59840;52.122;5.404;2023-04-24T09:57:14;100688.75;;;8.32;94.80
71974;BME280;59840;52.122;5.404;2023-04-24T09:59:46;100688.69;;;8.27;96.55
71974;BME280;59840;52.122;5.404;2023-04-24T10:02:20;100691.56;;;8.25;95.30
71974;BME280;59840;52.122;5.404;2023-04-24T10:04:56;100684.66;;;8.36;97.24
71974;BME280;59840;52.122;5.404;2023-04-24T10:07:27;100687.03;;;8.49;95.79
71974;BME280;59840;52.122;5.404;2023-04-24T10:10:01;100697.75;;;8.59;96.40
71974;BME280;59840;52.122;5.404;2023-04-24T10:12:29;100695.06;;;8.71;95.07
71974;BME280;59840;52.122;5.404;2023-04-24T10:14:59;100693.28;;;8.88;94.74
71974;BME280;59840;52.122;5.404;2023-04-24T10:17:29;100702.09;;;8.94;90.44
71974;BME280;59840;52.122;5.404;2023-04-24T10:19:59;100704.28;;;8.85;92.33
71974;BME280;59840;52.122;5.404;2023-04-24T10:22:28;100710.59;;;8.84;90.98
71974;BME280;59840;52.122;5.404;2023-04-24T10:24:56;100706.81;;;8.80;87.93
71974;BME280;59840;52.122;5.404;2023-04-24T10:27:31;100719.22;;;8.68;89.44
71974;BME280;59840;52.122;5.404;2023-04-24T10:30:00;100723.13;;;8.65;91.41
71974;BME280;59840;52.122;5.404;2023-04-24T10:32:32;100711.47;;;8.90;91.53
71974;BME280;59840;52.122;5.404;2023-04-24T10:34:59;100714.94;;;9.07;89.13
71974;BME280;59840;52.122;5.404;2023-04-24T10:37:26;100728.59;;;9.21;89.60
71974;BME280;59840;52.122;5.404;2023-04-24T10:39:53;100725.09;;;9.32;90.07
71974;BME280;59840;52.122;5.404;2023-04-24T10:42:21;100730.28;;;9.44;88.48
71974;BME280;59840;52.122;5.404;2023-04-24T10:44:51;100728.44;;;9.44;88.90
71974;BME280;59840;52.122;5.404;2023-04-24T10:47:20;100733.84;;;9.71;88.64
71974;BME280;59840;52.122;5.404;2023-04-24T10:49:58;100733.06;;;9.70;88.35
71974;BME280;59840;52.122;5.404;2023-04-24T10:52:43;100744.19;;;9.56;86.89
71974;BME280;59840;52.122;5.404;2023-04-24T10:55:12;100742.41;;;9.28;88.09
71974;BME280;59840;52.122;5.404;2023-04-24T10:57:39;100736.72;;;9.19;87.11
71974;BME280;59840;52.122;5.404;2023-04-24T11:00:24;100750.03;;;9.13;88.88
71974;BME280;59840;52.122;5.404;2023-04-24T11:02:56;100747.53;;;9.06;87.71
71974;BME280;59840;52.122;5.404;2023-04-24T11:08:39;100742.97;;;9.01;88.06
71974;BME280;59840;52.122;5.404;2023-04-24T11:11:11;100744.75;;;8.96;90.08
71974;BME280;59840;52.122;5.404;2023-04-24T11:21:43;100781.22;;;8.64;91.76
71974;BME280;59840;52.122;5.404;2023-04-24T11:24:36;100791.66;;;8.35;95.46
71974;BME280;59840;52.122;5.404;2023-04-24T11:27:11;100800.47;;;8.41;97.41
71974;BME280;59840;52.122;5.404;2023-04-24T11:32:24;100793.75;;;8.85;97.95
71974;BME280;59840;52.122;5.404;2023-04-24T11:34:54;100792.94;;;9.13;98.43
71974;BME280;59840;52.122;5.404;2023-04-24T11:37:23;100793.97;;;9.40;96.74
71974;BME280;59840;52.122;5.404;2023-04-24T11:39:56;100793.94;;;9.69;96.97
71974;BME280;59840;52.122;5.404;2023-04-24T11:42:23;100797.19;;;9.76;95.03
71974;BME280;59840;52.122;5.404;2023-04-24T11:44:54;100799.03;;;9.59;91.90
71974;BME280;59840;52.122;5.404;2023-04-24T11:47:30;100798.78;;;9.77;90.75
71974;BME280;59840;52.122;5.404;2023-04-24T11:49:58;100802.38;;;9.88;89.87
71974;BME280;59840;52.122;5.404;2023-04-24T11:52:43;100800.03;;;10.08;88.63
71974;BME280;59840;52.122;5.404;2023-04-24T11:57:49;100802.50;;;10.15;86.01
71974;BME280;59840;52.122;5.404;2023-04-24T12:00:27;100825.78;;;9.84;83.71
71974;BME280;59840;52.122;5.404;2023-04-24T12:03:06;100820.97;;;9.81;84.13
71974;BME280;59840;52.122;5.404;2023-04-24T12:05:34;100828.50;;;9.89;87.20
71974;BME280;59840;52.122;5.404;2023-04-24T12:08:03;100830.50;;;9.99;85.55
71974;BME280;59840;52.122;5.404;2023-04-24T12:10:39;100835.44;;;9.95;85.83
71974;BME280;59840;52.122;5.404;2023-04-24T12:13:10;100836.22;;;9.79;83.94
71974;BME280;59840;52.122;5.404;2023-04-24T12:15:39;100843.72;;;9.70;86.74
71974;BME280;59840;52.122;5.404;2023-04-24T12:18:12;100844.84;;;9.74;83.35
71974;BME280;59840;52.122;5.404;2023-04-24T12:20:43;100849.25;;;9.69;84.98
71974;BME280;59840;52.122;5.404;2023-04-24T12:23:13;100846.63;;;9.69;84.86
71974;BME280;59840;52.122;5.404;2023-04-24T12:25:40;100854.66;;;9.62;82.23
71974;BME280;59840;52.122;5.404;2023-04-24T12:28:11;100854.16;;;9.49;83.89
71974;BME280;59840;52.122;5.404;2023-04-24T12:30:54;100857.81;;;9.48;82.98
71974;BME280;59840;52.122;5.404;2023-04-24T12:33:23;100851.94;;;9.74;85.34
71974;BME280;59840;52.122;5.404;2023-04-24T12:35:53;100855.63;;;10.06;82.88
71974;BME280;59840;52.122;5.404;2023-04-24T12:38:26;100870.19;;;10.09;80.53
71974;BME280;59840;52.122;5.404;2023-04-24T12:41:04;100856.94;;;9.87;80.23
71974;BME280;59840;52.122;5.404;2023-04-24T12:43:31;100860.41;;;9.76;81.55
71974;BME280;59840;52.122;5.404;2023-04-24T12:45:58;100868.31;;;9.76;81.12
71974;BME280;59840;52.122;5.404;2023-04-24T12:48:26;100869.34;;;9.58;78.28
71974;BME280;59840;52.122;5.404;2023-04-24T12:50:57;100882.69;;;9.40;80.58
71974;BME280;59840;52.122;5.404;2023-04-24T12:53:28;100879.66;;;9.31;80.24
71974;BME280;59840;52.122;5.404;2023-04-24T12:55:57;100879.66;;;9.31;82.47
71974;BME280;59840;52.122;5.404;2023-04-24T12:58:26;100878.53;;;9.27;81.19
71974;BME280;59840;52.122;5.404;2023-04-24T13:00:53;100904.53;;;9.24;82.17
71974;BME280;59840;52.122;5.404;2023-04-24T13:03:21;100893.53;;;9.15;79.92
71974;BME280;59840;52.122;5.404;2023-04-24T13:05:51;100899.78;;;8.97;81.03
71974;BME280;59840;52.122;5.404;2023-04-24T13:08:21;100910.88;;;8.88;83.24
71974;BME280;59840;52.122;5.404;2023-04-24T13:10:48;100916.38;;;8.86;84.31
71974;BME280;59840;52.122;5.404;2023-04-24T13:13:17;100914.38;;;9.05;85.83
71974;BME280;59840;52.122;5.404;2023-04-24T13:15:45;100910.72;;;9.18;84.59
71974;BME280;59840;52.122;5.404;2023-04-24T13:18:12;100903.16;;;9.21;82.37
71974;BME280;59840;52.122;5.404;2023-04-24T13:20:41;100907.59;;;9.32;84.33
71974;BME280;59840;52.122;5.404;2023-04-24T13:23:08;100905.69;;;9.45;82.69
71974;BME280;59840;52.122;5.404;2023-04-24T13:25:36;100901.28;;;9.62;81.12
71974;BME280;59840;52.122;5.404;2023-04-24T13:28:04;100907.25;;;9.86;82.85
71974;BME280;59840;52.122;5.404;2023-04-24T13:30:43;100906.94;;;10.16;79.27
71974;BME280;59840;52.122;5.404;2023-04-24T13:33:09;100905.06;;;10.28;81.46
71974;BME280;59840;52.122;5.404;2023-04-24T13:35:36;100909.78;;;10.26;79.43
71974;BME280;59840;52.122;5.404;2023-04-24T13:38:05;100903.75;;;10.14;76.17
71974;BME280;59840;52.122;5.404;2023-04-24T13:40:33;100913.34;;;10.03;78.22
71974;BME280;59840;52.122;5.404;2023-04-24T13:43:03;100914.28;;;10.14;77.51
71974;BME280;59840;52.122;5.404;2023-04-24T13:45:30;100923.72;;;10.09;75.09
71974;BME280;59840;52.122;5.404;2023-04-24T13:47:59;100917.81;;;10.02;75.42
71974;BME280;59840;52.122;5.404;2023-04-24T13:50:28;100922.34;;;10.07;73.97
71974;BME280;59840;52.122;5.404;2023-04-24T13:53:06;100919.09;;;10.17;75.04
71974;BME280;59840;52.122;5.404;2023-04-24T13:55:36;100922.97;;;10.26;74.04
71974;BME280;59840;52.122;5.404;2023-04-24T13:58:06;100919.38;;;10.32;74.48
71974;BME280;59840;52.122;5.404;2023-04-24T14:00:38;100917.97;;;10.46;74.57
71974;BME280;59840;52.122;5.404;2023-04-24T14:03:07;100916.03;;;10.75;74.24
71974;BME280;59840;52.122;5.404;2023-04-24T14:05:38;100917.34;;;10.72;73.74
71974;BME280;59840;52.122;5.404;2023-04-24T14:08:07;100919.34;;;10.65;72.69
71974;BME280;59840;52.122;5.404;2023-04-24T14:10:36;100924.94;;;10.52;73.21
71974;BME280;59840;52.122;5.404;2023-04-24T14:13:03;100926.31;;;10.38;73.02
71974;BME280;59840;52.122;5.404;2023-04-24T14:15:29;100925.91;;;10.29;72.86
71974;BME280;59840;52.122;5.404;2023-04-24T14:17:58;100922.63;;;10.22;72.36
71974;BME280;59840;52.122;5.404;2023-04-24T14:20:25;100935.03;;;10.22;73.66
71974;BME280;59840;52.122;5.404;2023-04-24T14:22:53;100922.91;;;10.09;71.20
71974;BME280;59840;52.122;5.404;2023-04-24T14:25:20;100920.84;;;10.11;73.15
71974;BME280;59840;52.122;5.404;2023-04-24T14:27:47;100915.88;;;10.15;72.16
71974;BME280;59840;52.122;5.404;2023-04-24T14:30:19;100919.72;;;10.07;73.50
71974;BME280;59840;52.122;5.404;2023-04-24T14:32:59;100922.91;;;10.09;74.87
71974;BME280;59840;52.122;5.404;2023-04-24T14:35:26;100934.00;;;9.94;73.78
71974;BME280;59840;52.122;5.404;2023-04-24T14:37:57;100938.16;;;9.90;73.57
71974;BME280;59840;52.122;5.404;2023-04-24T14:40:23;100933.25;;;9.82;73.02
71974;BME280;59840;52.122;5.404;2023-04-24T14:43:10;100933.13;;;9.89;73.60
71974;BME280;59840;52.122;5.404;2023-04-24T14:45:38;100940.75;;;10.02;74.89
71974;BME280;59840;52.122;5.404;2023-04-24T14:48:07;100938.72;;;10.09;73.53
71974;BME280;59840;52.122;5.404;2023-04-24T14:50:35;100951.91;;;10.09;73.03
71974;BME280;59840;52.122;5.404;2023-04-24T14:53:02;100939.81;;;10.25;73.02
71974;BME280;59840;52.122;5.404;2023-04-24T14:55:31;100935.44;;;10.30;71.66
71974;BME280;59840;52.122;5.404;2023-04-24T14:58:00;100939.66;;;10.48;72.96
71974;BME280;59840;52.122;5.404;2023-04-24T15:00:27;100946.22;;;10.46;71.53
71974;BME280;59840;52.122;5.404;2023-04-24T15:02:55;100956.53;;;10.47;72.06
71974;BME280;59840;52.122;5.404;2023-04-24T15:05:22;100952.59;;;10.50;73.37
71974;BME280;59840;52.122;5.404;2023-04-24T15:07:51;100956.06;;;10.33;72.33
71974;BME280;59840;52.122;5.404;2023-04-24T15:10:17;100975.16;;;10.12;73.15
71974;BME280;59840;52.122;5.404;2023-04-24T15:12:44;100985.84;;;9.89;76.79